createdAt,value
2023-01-17T00:00:07.741Z,1.58
2023-01-17T00:02:37.816Z,2.10
2023-01-17T00:05:23.784Z,1.40
2023-01-17T00:08:09.515Z,1.40
2023-01-17T00:10:40.604Z,1.20
2023-01-17T00:13:07.563Z,1.33
2023-01-17T00:15:34.672Z,1.55
2023-01-17T00:18:01.676Z,1.52
2023-01-17T00:20:49.106Z,1.40
2023-01-17T00:23:36.062Z,1.23
2023-01-17T00:28:58.931Z,1.50
2023-01-17T00:31:28.362Z,1.45
2023-01-17T00:33:57.242Z,1.63
2023-01-17T00:36:25.044Z,1.52
2023-01-17T00:38:54.820Z,1.23
2023-01-17T00:41:24.403Z,1.50
2023-01-17T00:44:11.964Z,1.50
2023-01-17T00:46:59.861Z,1.63
2023-01-17T00:49:47.779Z,1.55
2023-01-17T00:52:33.158Z,1.70
2023-01-17T00:55:18.875Z,1.30
2023-01-17T00:58:04.397Z,1.52
2023-01-17T01:00:50.461Z,1.45
2023-01-17T01:03:36.244Z,1.27
2023-01-17T01:06:25.711Z,1.48
2023-01-17T01:09:13.342Z,1.65
2023-01-17T01:12:00.015Z,1.40
2023-01-17T01:14:46.015Z,1.70
2023-01-17T01:17:31.424Z,1.23
2023-01-17T01:20:17.200Z,1.23
2023-01-17T01:23:02.684Z,1.27
2023-01-17T01:25:48.349Z,1.42
2023-01-17T01:28:34.614Z,1.50
2023-01-17T01:31:32.252Z,1.60
2023-01-17T01:33:59.279Z,1.27
2023-01-17T01:36:26.123Z,1.50
2023-01-17T01:38:54.534Z,1.70
2023-01-17T01:41:21.507Z,1.50
2023-01-17T01:43:53.522Z,1.48
2023-01-17T01:46:25.642Z,2.10
2023-01-17T01:48:57.552Z,1.40
2023-01-17T01:51:38.603Z,1.63
2023-01-17T01:54:12.238Z,1.60
2023-01-17T01:56:40.689Z,1.42
2023-01-17T01:59:11.242Z,1.70
2023-01-17T02:01:38.299Z,1.55
2023-01-17T02:04:10.123Z,1.40
2023-01-17T02:06:48.935Z,1.48
2023-01-17T02:09:18.513Z,1.50
2023-01-17T02:11:47.030Z,1.55
2023-01-17T02:14:21.195Z,1.77
2023-01-17T02:17:06.939Z,1.60
2023-01-17T02:19:43.084Z,1.85
2023-01-17T02:22:34.487Z,1.40
2023-01-17T02:25:15.995Z,1.50
2023-01-17T02:28:12.444Z,1.52
2023-01-17T02:31:11.443Z,1.50
2023-01-17T02:34:06.866Z,1.50
2023-01-17T02:36:38.007Z,1.50
2023-01-17T02:39:08.567Z,1.38
2023-01-17T02:41:42.933Z,1.77
2023-01-17T02:44:11.525Z,1.80
2023-01-17T02:46:48.449Z,1.48
2023-01-17T02:49:17.856Z,1.60
2023-01-17T02:52:12.528Z,1.50
2023-01-17T02:55:01.339Z,1.80
2023-01-17T02:57:37.201Z,1.60
2023-01-17T03:00:23.910Z,1.73
2023-01-17T03:03:31.393Z,1.48
2023-01-17T03:06:11.654Z,1.58
2023-01-17T03:08:47.452Z,2.10
2023-01-17T03:11:14.790Z,2.03
2023-01-17T03:13:42.394Z,2.00
2023-01-17T03:16:14.987Z,1.75
2023-01-17T03:18:42.146Z,1.80
2023-01-17T03:21:09.105Z,1.90
2023-01-17T03:23:36.064Z,1.75
2023-01-17T03:26:03.088Z,1.80
2023-01-17T03:28:30.140Z,2.10
2023-01-17T03:30:57.058Z,1.95
2023-01-17T03:33:24.847Z,2.20
2023-01-17T03:35:51.804Z,1.95
2023-01-17T03:38:19.554Z,2.20
2023-01-17T03:40:46.451Z,2.20
2023-01-17T03:43:13.255Z,2.10
2023-01-17T03:45:40.248Z,2.00
2023-01-17T03:48:07.355Z,2.20
2023-01-17T03:50:35.249Z,2.92
2023-01-17T03:53:02.169Z,2.22
2023-01-17T03:55:29.487Z,2.28
2023-01-17T03:57:56.381Z,2.20
2023-01-17T04:00:24.466Z,2.22
2023-01-17T04:02:51.406Z,2.35
2023-01-17T04:05:18.387Z,2.10
2023-01-17T04:07:45.306Z,1.90
2023-01-17T04:10:12.100Z,2.40
2023-01-17T04:12:39.385Z,2.20
2023-01-17T04:15:07.986Z,1.85
2023-01-17T04:17:35.269Z,2.15
2023-01-17T04:20:02.134Z,2.40
2023-01-17T04:22:29.101Z,2.20
2023-01-17T04:24:55.886Z,2.55
2023-01-17T04:27:22.650Z,2.30
2023-01-17T04:29:49.613Z,1.90
2023-01-17T04:32:16.624Z,2.20
2023-01-17T04:34:43.667Z,2.05
2023-01-17T04:37:10.660Z,2.30
2023-01-17T04:39:37.576Z,2.88
2023-01-17T04:42:04.554Z,2.30
2023-01-17T04:44:31.385Z,2.35
2023-01-17T04:46:58.164Z,2.45
2023-01-17T04:49:24.992Z,2.50
2023-01-17T04:51:52.311Z,2.20
2023-01-17T04:54:19.129Z,2.50
2023-01-17T04:56:45.962Z,2.97
2023-01-17T04:59:12.749Z,2.90
2023-01-17T05:01:39.541Z,2.58
2023-01-17T05:04:07.029Z,2.90
2023-01-17T05:06:38.074Z,2.60
2023-01-17T05:09:04.867Z,3.00
2023-01-17T05:11:31.731Z,3.45
2023-01-17T05:13:58.782Z,2.58
2023-01-17T05:16:25.646Z,3.00
2023-01-17T05:18:57.509Z,3.58
2023-01-17T05:21:24.938Z,2.83
2023-01-17T05:23:52.122Z,2.13
2023-01-17T05:26:19.047Z,2.50
2023-01-17T05:28:45.918Z,3.25
2023-01-17T05:31:12.747Z,2.42
2023-01-17T05:33:39.646Z,2.65
2023-01-17T05:36:06.952Z,3.63
2023-01-17T05:38:33.754Z,3.40
2023-01-17T05:41:01.868Z,3.00
2023-01-17T05:43:29.317Z,3.10
2023-01-17T05:45:56.296Z,2.92
2023-01-17T05:48:23.092Z,3.08
2023-01-17T05:50:49.992Z,3.28
2023-01-17T05:53:17.352Z,2.85
2023-01-17T05:55:44.947Z,3.42
2023-01-17T05:58:18.025Z,3.00
2023-01-17T06:00:45.480Z,3.22
2023-01-17T06:03:17.760Z,3.13
2023-01-17T06:05:45.114Z,3.10
2023-01-17T06:08:12.354Z,3.30
2023-01-17T06:10:39.198Z,3.00
2023-01-17T06:13:15.355Z,3.17
2023-01-17T06:15:43.308Z,3.22
2023-01-17T06:18:19.512Z,3.28
2023-01-17T06:20:59.783Z,3.42
2023-01-17T06:23:26.953Z,3.10
2023-01-17T06:25:53.898Z,3.10
2023-01-17T06:28:22.898Z,3.58
2023-01-17T06:30:50.428Z,4.05
2023-01-17T06:33:17.998Z,3.53
2023-01-17T06:35:52.239Z,3.30
2023-01-17T06:38:20.204Z,3.33
2023-01-17T06:40:47.698Z,3.42
2023-01-17T06:43:15.206Z,3.90
2023-01-17T06:45:42.690Z,3.90
2023-01-17T06:48:09.972Z,3.70
2023-01-17T06:50:37.086Z,3.45
2023-01-17T06:53:06.604Z,4.43
2023-01-17T06:55:34.931Z,3.97
2023-01-17T06:58:03.164Z,3.80
2023-01-17T07:00:32.065Z,3.88
2023-01-17T07:03:03.024Z,3.63
2023-01-17T07:05:31.257Z,3.70
2023-01-17T07:07:58.510Z,3.70
2023-01-17T07:10:25.863Z,3.08
2023-01-17T07:13:01.135Z,3.40
2023-01-17T07:15:28.073Z,3.33
2023-01-17T07:17:55.019Z,3.13
2023-01-17T07:20:22.289Z,2.95
2023-01-17T07:22:49.716Z,3.28
2023-01-17T07:25:16.875Z,3.10
2023-01-17T07:27:44.113Z,3.10
2023-01-17T07:30:12.070Z,3.30
2023-01-17T07:32:39.338Z,3.53
2023-01-17T07:35:07.561Z,3.50
2023-01-17T07:37:34.793Z,2.90
2023-01-17T07:40:02.725Z,3.22
2023-01-17T07:42:30.076Z,3.10
2023-01-17T07:45:00.711Z,3.13
2023-01-17T07:47:27.646Z,3.30
2023-01-17T07:49:55.621Z,3.28
2023-01-17T07:52:27.006Z,3.40
2023-01-17T07:54:54.244Z,3.30
2023-01-17T07:57:21.673Z,3.17
2023-01-17T07:59:56.029Z,3.28
2023-01-17T08:02:24.367Z,3.50
2023-01-17T08:04:51.643Z,3.20
2023-01-17T08:07:21.696Z,3.47
2023-01-17T08:09:50.583Z,3.55
2023-01-17T08:12:18.083Z,3.47
2023-01-17T08:14:45.183Z,3.67
2023-01-17T08:17:17.739Z,3.47
2023-01-17T08:19:46.970Z,4.07
2023-01-17T08:22:14.169Z,3.70
2023-01-17T08:24:42.784Z,3.95
2023-01-17T08:27:10.231Z,3.97
2023-01-17T08:29:37.618Z,4.00
2023-01-17T08:32:05.049Z,3.75
2023-01-17T08:34:33.704Z,4.03
2023-01-17T08:37:01.011Z,3.70
2023-01-17T08:39:29.047Z,3.85
2023-01-17T08:41:58.462Z,4.25
2023-01-17T08:44:30.117Z,4.43
2023-01-17T08:46:57.581Z,4.07
2023-01-17T08:49:24.960Z,4.50
2023-01-17T08:51:55.073Z,4.20
2023-01-17T08:54:25.948Z,3.97
2023-01-17T08:56:53.134Z,3.78
2023-01-17T08:59:20.513Z,4.22
2023-01-17T09:01:51.165Z,3.75
2023-01-17T09:04:18.664Z,3.83
2023-01-17T09:06:48.584Z,3.67
2023-01-17T09:09:27.163Z,3.80
2023-01-17T09:11:54.230Z,3.85
2023-01-17T09:14:24.139Z,4.18
2023-01-17T09:16:52.636Z,4.15
2023-01-17T09:19:21.229Z,4.28
2023-01-17T09:21:48.274Z,4.05
2023-01-17T09:24:15.979Z,4.15
2023-01-17T09:26:44.494Z,3.80
2023-01-17T09:29:13.682Z,3.00
2023-01-17T09:31:42.435Z,3.20
2023-01-17T09:34:09.405Z,3.45
2023-01-17T09:36:36.468Z,3.60
2023-01-17T09:39:08.207Z,3.17
2023-01-17T09:41:47.168Z,3.00
2023-01-17T09:44:28.420Z,3.25
2023-01-17T09:47:37.241Z,3.58
2023-01-17T09:50:29.601Z,3.00
2023-01-17T09:53:09.935Z,3.10
2023-01-17T09:56:10.667Z,3.00
2023-01-17T09:58:51.115Z,3.00
2023-01-17T10:01:44.621Z,3.20
2023-01-17T10:04:42.223Z,2.78
2023-01-17T10:10:18.498Z,2.78
2023-01-17T10:12:58.722Z,3.15
2023-01-17T10:16:01.811Z,2.85
2023-01-17T10:19:19.426Z,2.97
2023-01-17T10:22:11.421Z,3.20
2023-01-17T10:24:57.931Z,3.72
2023-01-17T10:27:50.746Z,3.30
2023-01-17T10:30:42.783Z,3.53
2023-01-17T10:33:27.846Z,3.15
2023-01-17T10:36:03.910Z,3.10
2023-01-17T10:38:43.550Z,3.20
2023-01-17T10:41:33.212Z,2.80
2023-01-17T10:44:26.504Z,3.10
2023-01-17T10:47:02.757Z,2.45
2023-01-17T10:49:31.557Z,2.88
2023-01-17T10:52:23.564Z,3.03
2023-01-17T10:55:09.639Z,2.85
2023-01-17T10:57:45.466Z,2.70
2023-01-17T11:00:25.126Z,2.60
2023-01-17T11:02:52.586Z,2.75
2023-01-17T11:05:28.849Z,2.70
2023-01-17T11:08:13.599Z,2.42
2023-01-17T11:10:44.677Z,1.85
2023-01-17T11:13:23.252Z,2.75
2023-01-17T11:15:53.685Z,2.10
2023-01-17T11:18:22.127Z,1.90
2023-01-17T11:20:49.914Z,1.70
2023-01-17T11:23:34.982Z,1.90
2023-01-17T11:26:06.024Z,1.75
2023-01-17T11:28:35.060Z,1.73
2023-01-17T11:31:26.518Z,1.80
2023-01-17T11:34:27.475Z,1.40
2023-01-17T11:37:15.695Z,1.60
2023-01-17T11:39:44.462Z,1.60
2023-01-17T11:42:36.175Z,1.70
2023-01-17T11:45:31.933Z,1.83
2023-01-17T11:48:09.158Z,2.00
2023-01-17T11:50:38.944Z,2.10
2023-01-17T11:53:16.225Z,2.13
2023-01-17T11:56:11.747Z,1.50
2023-01-17T11:58:48.978Z,1.70
2023-01-17T12:01:30.633Z,2.00
2023-01-17T12:04:20.017Z,1.70
2023-01-17T12:07:25.991Z,1.58
2023-01-17T12:10:22.649Z,1.42
2023-01-17T12:13:35.710Z,1.57
2023-01-17T12:16:32.718Z,1.70
2023-01-17T12:19:21.668Z,1.70
2023-01-17T12:22:39.360Z,1.50
2023-01-17T12:25:23.443Z,1.60
2023-01-17T12:28:18.682Z,1.52
2023-01-17T12:31:19.681Z,1.88
2023-01-17T12:34:04.619Z,1.60
2023-01-17T12:36:48.475Z,1.83
2023-01-17T12:39:19.246Z,1.60
2023-01-17T12:41:53.623Z,1.90
2023-01-17T12:44:33.349Z,1.40
2023-01-17T12:47:05.866Z,1.70
2023-01-17T12:49:42.869Z,1.58
2023-01-17T12:52:52.413Z,1.40
2023-01-17T12:55:33.285Z,1.50
2023-01-17T12:58:02.527Z,1.73
2023-01-17T13:00:31.216Z,1.65
2023-01-17T13:03:48.625Z,1.70
2023-01-17T13:06:25.054Z,1.80
2023-01-17T13:11:28.595Z,1.52
2023-01-17T13:13:57.633Z,1.63
2023-01-17T13:16:35.631Z,1.73
2023-01-17T13:19:14.791Z,1.77
2023-01-17T13:21:41.706Z,1.70
2023-01-17T13:24:37.462Z,1.60
2023-01-17T13:27:16.118Z,1.77
2023-01-17T13:30:03.880Z,1.70
2023-01-17T13:32:45.704Z,2.17
2023-01-17T13:35:41.987Z,2.00
2023-01-17T13:38:25.643Z,1.63
2023-01-17T13:41:22.716Z,2.05
2023-01-17T13:44:08.070Z,1.80
2023-01-17T13:47:00.789Z,1.98
2023-01-17T13:49:33.900Z,2.33
2023-01-17T13:52:09.731Z,2.30
2023-01-17T13:54:48.411Z,2.38
2023-01-17T13:57:29.740Z,2.20
2023-01-17T13:59:59.190Z,1.95
2023-01-17T14:02:32.230Z,2.08
2023-01-17T14:05:24.007Z,2.42
2023-01-17T14:08:12.929Z,2.10
2023-01-17T14:10:52.163Z,2.05
2023-01-17T14:13:37.611Z,2.03
2023-01-17T14:16:29.111Z,2.10
2023-01-17T14:18:56.926Z,2.08
2023-01-17T14:21:27.461Z,2.30
2023-01-17T14:24:04.671Z,2.13
2023-01-17T14:26:45.225Z,2.10
2023-01-17T14:29:44.187Z,2.13
2023-01-17T14:32:14.215Z,2.17
2023-01-17T14:34:43.327Z,2.17
2023-01-17T14:37:36.967Z,2.10
2023-01-17T14:40:15.995Z,2.00
2023-01-17T14:42:43.476Z,2.00
2023-01-17T14:45:22.090Z,2.10
2023-01-17T14:47:51.731Z,1.90
2023-01-17T14:50:24.189Z,2.05
2023-01-17T14:53:13.247Z,1.98
2023-01-17T14:55:49.163Z,2.13
2023-01-17T14:58:24.676Z,1.90
2023-01-17T15:00:58.109Z,2.08
2023-01-17T15:03:25.498Z,2.20
2023-01-17T15:05:54.804Z,2.10
2023-01-17T15:08:27.051Z,2.70
2023-01-17T15:10:58.958Z,2.55
2023-01-17T15:13:49.621Z,2.53
2023-01-17T15:16:29.674Z,2.15
2023-01-17T15:18:57.448Z,2.45
2023-01-17T15:21:34.034Z,2.05
2023-01-17T15:26:35.413Z,2.47
2023-01-17T15:29:24.264Z,2.13
2023-01-17T15:31:54.970Z,2.30
2023-01-17T15:34:32.182Z,2.53
2023-01-17T15:37:02.408Z,2.42
2023-01-17T15:39:33.049Z,2.40
2023-01-17T15:42:03.773Z,2.80
2023-01-17T15:44:50.273Z,2.40
2023-01-17T15:47:43.739Z,2.67
2023-01-17T15:50:24.717Z,2.63
2023-01-17T15:52:55.772Z,2.63
2023-01-17T15:55:34.383Z,3.10
2023-01-17T15:58:02.451Z,2.67
2023-01-17T16:00:47.929Z,2.42
2023-01-17T16:03:24.520Z,2.75
2023-01-17T16:08:29.468Z,2.67
2023-01-17T16:11:02.574Z,2.58
2023-01-17T16:13:35.731Z,2.67
2023-01-17T16:16:19.915Z,3.35
2023-01-17T16:18:48.354Z,3.25
2023-01-17T16:21:18.782Z,3.35
2023-01-17T16:23:46.916Z,2.80
2023-01-17T16:26:14.247Z,3.20
2023-01-17T16:28:41.190Z,3.03
2023-01-17T16:31:08.134Z,3.10
2023-01-17T16:33:34.955Z,3.35
2023-01-17T16:36:02.008Z,3.40
2023-01-17T16:38:28.929Z,3.40
2023-01-17T16:40:55.781Z,2.92
2023-01-17T16:43:22.863Z,3.67
2023-01-17T16:45:52.974Z,3.22
2023-01-17T16:48:20.632Z,3.10
2023-01-17T16:50:53.053Z,3.45
2023-01-17T16:53:24.356Z,3.45
2023-01-17T16:55:53.977Z,3.97
2023-01-17T16:58:20.899Z,4.25
2023-01-17T17:00:47.946Z,4.00
2023-01-17T17:03:19.198Z,4.07
2023-01-17T17:06:00.805Z,3.60
2023-01-17T17:08:31.241Z,4.05
2023-01-17T17:11:18.763Z,4.10
2023-01-17T17:13:47.487Z,5.57
2023-01-17T17:16:17.510Z,3.95
2023-01-17T17:18:47.584Z,4.70
2023-01-17T17:21:14.727Z,3.95
2023-01-17T17:23:41.667Z,4.70
2023-01-17T17:26:08.528Z,4.28
2023-01-17T17:28:35.884Z,4.85
2023-01-17T17:31:08.690Z,4.70
2023-01-17T17:33:36.837Z,5.60
2023-01-17T17:36:05.887Z,5.18
2023-01-17T17:38:36.376Z,4.82
2023-01-17T17:41:09.831Z,4.95
2023-01-17T17:43:42.820Z,4.93
2023-01-17T17:46:09.933Z,4.47
2023-01-17T17:48:36.931Z,4.40
2023-01-17T17:51:04.665Z,4.80
2023-01-17T17:53:32.492Z,5.38
2023-01-17T17:56:04.443Z,5.20
2023-01-17T17:58:33.676Z,5.95
2023-01-17T18:01:06.518Z,5.72
2023-01-17T18:03:34.157Z,6.30
2023-01-17T18:06:06.038Z,6.47
2023-01-17T18:08:34.004Z,6.78
2023-01-17T18:11:14.885Z,6.07
2023-01-17T18:13:43.074Z,6.03
2023-01-17T18:16:14.964Z,6.65
2023-01-17T18:18:45.327Z,5.60
2023-01-17T18:21:25.401Z,5.72
2023-01-17T18:23:55.064Z,6.07
2023-01-17T18:26:46.261Z,6.22
2023-01-17T18:29:15.925Z,6.45
2023-01-17T18:31:44.722Z,6.00
2023-01-17T18:34:17.103Z,5.97
2023-01-17T18:36:44.528Z,6.15
2023-01-17T18:39:17.114Z,6.30
2023-01-17T18:41:44.444Z,6.47
2023-01-17T18:44:12.181Z,6.55
2023-01-17T18:46:40.410Z,6.13
2023-01-17T18:49:07.971Z,6.65
2023-01-17T18:51:34.970Z,6.25
2023-01-17T18:54:05.823Z,6.60
2023-01-17T18:56:36.410Z,6.75
2023-01-17T18:59:05.964Z,7.43
2023-01-17T19:01:35.841Z,6.22
2023-01-17T19:04:05.330Z,6.60
2023-01-17T19:06:34.900Z,5.85
2023-01-17T19:09:01.853Z,6.72
2023-01-17T19:11:28.957Z,6.43
2023-01-17T19:13:56.609Z,6.25
2023-01-17T19:16:28.180Z,6.18
2023-01-17T19:18:57.410Z,5.68
2023-01-17T19:21:26.090Z,5.25
2023-01-17T19:23:53.964Z,5.40
2023-01-17T19:26:23.176Z,5.40
2023-01-17T19:28:50.965Z,5.47
2023-01-17T19:31:21.202Z,4.82
2023-01-17T19:33:50.539Z,4.82
2023-01-17T19:36:20.833Z,4.53
2023-01-17T19:39:03.113Z,4.80
2023-01-17T19:41:32.629Z,5.22
2023-01-17T19:44:06.625Z,5.30
2023-01-17T19:46:34.470Z,4.55
2023-01-17T19:49:02.267Z,5.20
2023-01-17T19:51:29.234Z,4.93
2023-01-17T19:53:59.170Z,4.93
2023-01-17T19:56:27.105Z,5.25
2023-01-17T19:58:54.149Z,5.30
2023-01-17T20:01:24.789Z,5.85
2023-01-17T20:03:52.168Z,4.82
2023-01-17T20:06:21.859Z,4.82
2023-01-17T20:08:49.402Z,4.72
2023-01-17T20:11:21.861Z,4.97
2023-01-17T20:13:56.129Z,5.40
2023-01-17T20:16:24.973Z,5.80
2023-01-17T20:18:52.997Z,6.15
2023-01-17T20:21:23.382Z,4.78
2023-01-17T20:23:52.393Z,6.10
2023-01-17T20:26:23.367Z,5.40
2023-01-17T20:28:51.895Z,4.75
2023-01-17T20:31:22.119Z,4.50
2023-01-17T20:33:50.901Z,4.88
2023-01-17T20:36:20.286Z,5.13
2023-01-17T20:38:48.812Z,5.40
2023-01-17T20:41:22.011Z,4.82
2023-01-17T20:43:51.808Z,5.00
2023-01-17T20:46:20.892Z,4.32
2023-01-17T20:48:50.357Z,5.07
2023-01-17T20:51:18.667Z,4.43
2023-01-17T20:53:47.395Z,4.20
2023-01-17T20:56:15.644Z,4.55
2023-01-17T20:58:43.086Z,4.60
2023-01-17T21:01:13.154Z,5.07
2023-01-17T21:03:40.572Z,5.03
2023-01-17T21:06:09.990Z,4.25
2023-01-17T21:08:39.192Z,3.90
2023-01-17T21:11:08.147Z,4.20
2023-01-17T21:13:35.737Z,4.38
2023-01-17T21:16:03.656Z,4.03
2023-01-17T21:18:34.239Z,3.90
2023-01-17T21:21:08.162Z,4.00
2023-01-17T21:23:35.820Z,3.80
2023-01-17T21:26:03.784Z,3.70
2023-01-17T21:28:33.809Z,3.60
2023-01-17T21:31:05.985Z,3.20
2023-01-17T21:33:33.021Z,3.35
2023-01-17T21:36:10.607Z,3.05
2023-01-17T21:38:39.022Z,3.13
2023-01-17T21:41:06.557Z,3.60
2023-01-17T21:43:33.922Z,4.00
2023-01-17T21:46:05.013Z,4.00
2023-01-17T21:48:32.292Z,4.20
2023-01-17T21:51:07.583Z,4.20
2023-01-17T21:53:36.786Z,4.13
2023-01-17T21:56:24.688Z,3.53
2023-01-17T21:58:54.999Z,3.70
2023-01-17T22:01:23.862Z,3.20
2023-01-17T22:04:04.059Z,2.85
2023-01-17T22:06:39.130Z,3.22
2023-01-17T22:09:07.581Z,3.10
2023-01-17T22:11:36.987Z,3.35
2023-01-17T22:14:05.041Z,3.20
2023-01-17T22:16:32.295Z,3.63
2023-01-17T22:18:59.544Z,3.58
2023-01-17T22:21:28.407Z,3.45
2023-01-17T22:23:57.282Z,3.33
2023-01-17T22:26:30.222Z,3.53
2023-01-17T22:29:00.947Z,3.53
2023-01-17T22:31:29.237Z,2.92
2023-01-17T22:34:00.629Z,3.10
2023-01-17T22:36:28.143Z,3.10
2023-01-17T22:38:55.600Z,3.67
2023-01-17T22:41:25.409Z,3.50
2023-01-17T22:43:55.602Z,3.38
2023-01-17T22:46:29.792Z,3.47
2023-01-17T22:48:57.596Z,3.85
2023-01-17T22:51:26.744Z,5.55
2023-01-17T22:53:59.512Z,4.50
2023-01-17T22:56:32.115Z,3.70
2023-01-17T22:59:00.935Z,4.28
2023-01-17T23:01:30.774Z,3.70
2023-01-17T23:04:03.641Z,3.78
2023-01-17T23:06:34.622Z,3.75
2023-01-17T23:09:07.716Z,3.42
2023-01-17T23:11:43.603Z,3.85
2023-01-17T23:14:28.413Z,3.55
2023-01-17T23:17:13.746Z,3.28
2023-01-17T23:19:54.730Z,3.10
2023-01-17T23:22:26.779Z,3.13
2023-01-17T23:24:59.592Z,3.65
2023-01-17T23:27:44.932Z,3.10
2023-01-17T23:30:15.314Z,3.17
2023-01-17T23:32:54.532Z,3.05
2023-01-17T23:35:26.569Z,3.47
2023-01-17T23:38:12.233Z,3.10
2023-01-17T23:40:39.759Z,3.33
2023-01-17T23:43:25.336Z,3.28
2023-01-17T23:45:53.697Z,3.50
2023-01-17T23:48:23.535Z,3.38
2023-01-17T23:50:50.289Z,3.30
2023-01-17T23:53:23.181Z,3.40
2023-01-17T23:55:52.397Z,3.65
2023-01-17T23:58:20.794Z,3.50
